createdAt,value
2023-03-25T00:02:49.447Z,97608.48
2023-03-25T00:13:15.558Z,97605.39
2023-03-25T00:23:42.072Z,97600.65
2023-03-25T00:34:07.439Z,97603.42
2023-03-25T00:44:33.770Z,97601.19
2023-03-25T00:54:59.245Z,97598.16
2023-03-25T01:05:25.130Z,97592.71
2023-03-25T01:15:51.400Z,97593.65
2023-03-25T01:26:17.857Z,97601.23
2023-03-25T01:36:46.914Z,97596.16
2023-03-25T01:47:12.774Z,97590.40
2023-03-25T01:57:43.960Z,97588.96
2023-03-25T02:08:10.459Z,97597.84
2023-03-25T02:18:45.600Z,97617.71
2023-03-25T02:29:24.255Z,97625.73
2023-03-25T02:39:57.030Z,97616.70
2023-03-25T02:50:28.859Z,97628.88
2023-03-25T03:00:59.173Z,97630.23
2023-03-25T03:11:29.400Z,97630.04
2023-03-25T03:22:01.321Z,97653.69
2023-03-25T03:32:32.774Z,97653.54
2023-03-25T03:43:02.774Z,97652.31
2023-03-25T03:53:33.310Z,97643.65
2023-03-25T04:04:02.312Z,97648.77
2023-03-25T04:14:28.503Z,97648.73
2023-03-25T04:24:56.341Z,97650.41
2023-03-25T04:35:22.989Z,97664.43
2023-03-25T04:45:54.544Z,97675.47
2023-03-25T04:56:21.494Z,97679.21
2023-03-25T05:06:49.500Z,97682.66
2023-03-25T05:17:15.510Z,97683.26
2023-03-25T05:27:41.720Z,97689.30
2023-03-25T05:38:08.297Z,97701.06
2023-03-25T05:48:35.841Z,97697.36
2023-03-25T05:59:01.762Z,97700.09
2023-03-25T06:09:31.220Z,97704.67
2023-03-25T06:19:57.178Z,97710.48
2023-03-25T06:30:23.995Z,97714.31
2023-03-25T06:40:50.174Z,97724.52
2023-03-25T06:51:16.330Z,97731.70
2023-03-25T07:01:43.234Z,97737.59
2023-03-25T07:12:09.907Z,97719.79
2023-03-25T07:22:36.003Z,97705.56
2023-03-25T07:33:01.955Z,97697.48
2023-03-25T07:43:28.137Z,97688.62
2023-03-25T07:53:53.816Z,97692.41
2023-03-25T08:04:19.533Z,97690.77
2023-03-25T08:14:45.244Z,97693.85
2023-03-25T08:25:12.269Z,97682.65
2023-03-25T08:35:39.813Z,97678.29
2023-03-25T08:46:04.300Z,97672.30
2023-03-25T08:56:30.239Z,97661.42
2023-03-25T09:07:12.058Z,97671.48
2023-03-25T09:17:38.672Z,97665.05
2023-03-25T09:28:04.531Z,97664.32
2023-03-25T09:38:32.012Z,97644.94
2023-03-25T09:48:58.832Z,97640.69
2023-03-25T09:59:28.812Z,97619.52
2023-03-25T10:10:03.533Z,97603.95
2023-03-25T10:20:43.337Z,97590.76
2023-03-25T10:31:15.101Z,97593.73
2023-03-25T10:41:43.715Z,97590.98
2023-03-25T10:52:10.301Z,97578.64
2023-03-25T11:02:36.454Z,97564.73
2023-03-25T11:13:04.192Z,97564.70
2023-03-25T11:23:33.372Z,97569.83
2023-03-25T11:34:17.687Z,97571.91
2023-03-25T11:44:44.527Z,97565.44
2023-03-25T11:55:20.406Z,97582.41
2023-03-25T12:05:58.074Z,97584.52
2023-03-25T12:16:31.689Z,97581.06
2023-03-25T12:27:10.151Z,97560.60
2023-03-25T12:37:47.551Z,97559.42
2023-03-25T12:48:26.972Z,97557.13
2023-03-25T12:59:27.902Z,97561.98
2023-03-25T13:10:01.468Z,97555.27
2023-03-25T13:20:29.345Z,97546.45
2023-03-25T13:30:57.853Z,97532.27
2023-03-25T13:41:29.662Z,97532.41
2023-03-25T13:51:56.313Z,97532.37
2023-03-25T14:02:41.298Z,97551.58
2023-03-25T14:13:10.225Z,97552.86
2023-03-25T14:23:36.326Z,97555.64
2023-03-25T14:34:26.869Z,97555.42
2023-03-25T14:44:55.492Z,97549.27
2023-03-25T14:55:27.358Z,97551.87
2023-03-25T15:06:00.793Z,97561.14
2023-03-25T15:16:35.788Z,97548.96
2023-03-25T15:27:08.740Z,97548.15
2023-03-25T15:37:55.085Z,97551.02
2023-03-25T15:48:39.593Z,97549.52
2023-03-25T15:59:13.771Z,97555.90
2023-03-25T16:09:47.134Z,97577.89
2023-03-25T16:20:19.434Z,97588.95
2023-03-25T16:30:50.449Z,97588.55
2023-03-25T16:41:17.667Z,97589.75
2023-03-25T16:51:45.097Z,97603.77
2023-03-25T17:02:27.990Z,97600.02
2023-03-25T17:12:59.297Z,97614.34
2023-03-25T17:23:34.458Z,97619.45
2023-03-25T17:34:09.492Z,97632.65
2023-03-25T17:44:37.868Z,97645.79
2023-03-25T17:55:03.892Z,97635.98
2023-03-25T18:05:29.952Z,97627.91
2023-03-25T18:15:58.814Z,97632.12
2023-03-25T18:26:22.675Z,97638.44
2023-03-25T18:36:49.723Z,97639.02
2023-03-25T18:47:15.589Z,97636.61
2023-03-25T18:57:42.403Z,97638.83
2023-03-25T19:08:09.094Z,97635.16
2023-03-25T19:18:35.710Z,97641.98
2023-03-25T19:29:01.900Z,97639.85
2023-03-25T19:39:28.253Z,97632.11
2023-03-25T19:49:54.319Z,97621.96
2023-03-25T20:00:22.903Z,97622.81
2023-03-25T20:10:48.318Z,97630.33
2023-03-25T20:21:14.481Z,97638.16
2023-03-25T20:31:40.813Z,97644.06
2023-03-25T20:42:07.121Z,97642.43
2023-03-25T20:52:32.816Z,97645.86
2023-03-25T21:02:59.228Z,97672.39
2023-03-25T21:13:26.547Z,97691.60
2023-03-25T21:23:52.256Z,97713.34
2023-03-25T21:34:18.395Z,97720.98
2023-03-25T21:44:44.118Z,97715.85
2023-03-25T21:55:11.329Z,97720.14
2023-03-25T22:05:36.743Z,97724.52
2023-03-25T22:16:02.791Z,97716.13
2023-03-25T22:26:30.319Z,97712.81
2023-03-25T22:36:56.167Z,97715.66
2023-03-25T22:47:21.908Z,97721.92
2023-03-25T22:57:47.937Z,97734.09
2023-03-25T23:08:13.858Z,97735.49
2023-03-25T23:18:41.997Z,97733.81
2023-03-25T23:29:09.114Z,97739.50
2023-03-25T23:39:35.084Z,97733.48
2023-03-25T23:50:04.157Z,97722.55
